sensor_id;sensor_type;location;lat;lon;timestamp;pressure;altitude;pressure_sealevel;temperature;humidity
11345;BME280;5727;42.600;23.028;2023-03-24T00:00:06;93748.25;;;6.92;100.00
11345;BME280;5727;42.600;23.028;2023-03-24T00:02:37;93761.56;;;6.82;100.00
11345;BME280;5727;42.600;23.028;2023-03-24T00:05:06;93765.00;;;6.69;100.00
11345;BME280;5727;42.600;23.028;2023-03-24T00:07:33;93760.00;;;6.72;100.00
11345;BME280;5727;42.600;23.028;2023-03-24T00:10:03;93757.88;;;6.74;100.00
11345;BME280;5727;42.600;23.028;2023-03-24T00:12:30;93753.84;;;6.68;100.00
11345;BME280;5727;42.600;23.028;2023-03-24T00:14:58;93748.66;;;6.68;100.00
11345;BME280;5727;42.600;23.028;2023-03-24T00:17:27;93758.44;;;6.71;100.00
11345;BME280;5727;42.600;23.028;2023-03-24T00:19:55;93755.06;;;6.71;100.00
11345;BME280;5727;42.600;23.028;2023-03-24T00:22:22;93754.00;;;6.72;100.00
11345;BME280;5727;42.600;23.028;2023-03-24T00:24:52;93749.09;;;6.70;100.00
11345;BME280;5727;42.600;23.028;2023-03-24T00:27:19;93752.78;;;6.69;100.00
11345;BME280;5727;42.600;23.028;2023-03-24T00:29:46;93747.09;;;6.67;100.00
11345;BME280;5727;42.600;23.028;2023-03-24T00:32:13;93742.66;;;6.68;100.00
11345;BME280;5727;42.600;23.028;2023-03-24T00:34:40;93746.94;;;6.64;100.00
11345;BME280;5727;42.600;23.028;2023-03-24T00:37:09;93736.81;;;6.62;100.00
11345;BME280;5727;42.600;23.028;2023-03-24T00:39:36;93740.47;;;6.61;100.00
11345;BME280;5727;42.600;23.028;2023-03-24T00:42:03;93737.88;;;6.61;100.00
11345;BME280;5727;42.600;23.028;2023-03-24T00:44:30;93732.19;;;6.59;100.00
11345;BME280;5727;42.600;23.028;2023-03-24T00:46:56;93727.13;;;6.54;100.00
11345;BME280;5727;42.600;23.028;2023-03-24T00:49:26;93727.28;;;6.49;100.00
11345;BME280;5727;42.600;23.028;2023-03-24T00:52:12;93735.34;;;6.47;100.00
11345;BME280;5727;42.600;23.028;2023-03-24T00:54:39;93729.97;;;6.44;100.00
11345;BME280;5727;42.600;23.028;2023-03-24T00:57:06;93729.50;;;6.42;100.00
11345;BME280;5727;42.600;23.028;2023-03-24T00:59:34;93739.91;;;6.42;100.00
11345;BME280;5727;42.600;23.028;2023-03-24T01:02:06;93738.50;;;6.36;100.00
11345;BME280;5727;42.600;23.028;2023-03-24T01:04:36;93736.97;;;6.35;100.00
11345;BME280;5727;42.600;23.028;2023-03-24T01:07:04;93736.50;;;6.33;100.00
11345;BME280;5727;42.600;23.028;2023-03-24T01:09:34;93735.09;;;6.27;100.00
11345;BME280;5727;42.600;23.028;2023-03-24T01:12:01;93738.47;;;6.27;100.00
11345;BME280;5727;42.600;23.028;2023-03-24T01:14:28;93734.16;;;6.23;100.00
11345;BME280;5727;42.600;23.028;2023-03-24T01:16:55;93732.47;;;6.18;100.00
11345;BME280;5727;42.600;23.028;2023-03-24T01:19:22;93735.06;;;6.18;100.00
11345;BME280;5727;42.600;23.028;2023-03-24T01:21:50;93721.56;;;6.16;100.00
11345;BME280;5727;42.600;23.028;2023-03-24T01:24:18;93722.94;;;6.14;100.00
11345;BME280;5727;42.600;23.028;2023-03-24T01:26:47;93724.75;;;6.13;100.00
11345;BME280;5727;42.600;23.028;2023-03-24T01:29:14;93719.06;;;6.11;100.00
11345;BME280;5727;42.600;23.028;2023-03-24T01:31:40;93713.72;;;6.08;100.00
11345;BME280;5727;42.600;23.028;2023-03-24T01:34:07;93721.66;;;6.03;100.00
11345;BME280;5727;42.600;23.028;2023-03-24T01:36:34;93719.78;;;6.03;100.00
11345;BME280;5727;42.600;23.028;2023-03-24T01:39:01;93720.09;;;6.02;100.00
11345;BME280;5727;42.600;23.028;2023-03-24T01:41:31;93728.31;;;5.95;100.00
11345;BME280;5727;42.600;23.028;2023-03-24T01:44:00;93718.19;;;5.94;100.00
11345;BME280;5727;42.600;23.028;2023-03-24T01:46:27;93719.28;;;5.93;100.00
11345;BME280;5727;42.600;23.028;2023-03-24T01:49:00;93718.31;;;5.89;100.00
11345;BME280;5727;42.600;23.028;2023-03-24T01:51:29;93726.72;;;5.86;100.00
11345;BME280;5727;42.600;23.028;2023-03-24T01:54:01;93728.25;;;5.87;100.00
11345;BME280;5727;42.600;23.028;2023-03-24T01:56:32;93728.63;;;5.80;100.00
11345;BME280;5727;42.600;23.028;2023-03-24T01:59:04;93731.50;;;5.79;100.00
11345;BME280;5727;42.600;23.028;2023-03-24T02:01:32;93727.69;;;5.76;100.00
11345;BME280;5727;42.600;23.028;2023-03-24T02:04:01;93729.22;;;5.77;100.00
11345;BME280;5727;42.600;23.028;2023-03-24T02:06:29;93735.88;;;5.70;100.00
11345;BME280;5727;42.600;23.028;2023-03-24T02:08:57;93731.75;;;5.69;100.00
11345;BME280;5727;42.600;23.028;2023-03-24T02:11:28;93733.28;;;5.70;100.00
11345;BME280;5727;42.600;23.028;2023-03-24T02:13:56;93730.81;;;5.65;100.00
11345;BME280;5727;42.600;23.028;2023-03-24T02:16:44;93730.34;;;5.63;100.00
11345;BME280;5727;42.600;23.028;2023-03-24T02:19:36;93722.53;;;5.63;100.00
11345;BME280;5727;42.600;23.028;2023-03-24T02:22:41;93718.09;;;5.63;100.00
11345;BME280;5727;42.600;23.028;2023-03-24T02:25:48;93730.59;;;5.61;100.00
11345;BME280;5727;42.600;23.028;2023-03-24T02:28:31;93732.28;;;5.57;100.00
11345;BME280;5727;42.600;23.028;2023-03-24T02:31:25;93733.94;;;5.53;100.00
11345;BME280;5727;42.600;23.028;2023-03-24T02:37:31;93733.72;;;5.49;100.00
11345;BME280;5727;42.600;23.028;2023-03-24T02:40:18;93719.50;;;5.47;100.00
11345;BME280;5727;42.600;23.028;2023-03-24T02:43:08;93726.69;;;5.50;100.00
11345;BME280;5727;42.600;23.028;2023-03-24T02:45:49;93720.25;;;5.47;100.00
11345;BME280;5727;42.600;23.028;2023-03-24T02:48:23;93732.59;;;5.42;100.00
11345;BME280;5727;42.600;23.028;2023-03-24T02:51:01;93720.00;;;5.35;100.00
11345;BME280;5727;42.600;23.028;2023-03-24T02:53:36;93707.97;;;5.39;100.00
11345;BME280;5727;42.600;23.028;2023-03-24T02:56:10;93717.94;;;5.46;100.00
11345;BME280;5727;42.600;23.028;2023-03-24T02:58:41;93714.47;;;5.50;100.00
11345;BME280;5727;42.600;23.028;2023-03-24T03:01:14;93711.00;;;5.55;100.00
11345;BME280;5727;42.600;23.028;2023-03-24T03:03:48;93698.50;;;5.57;100.00
11345;BME280;5727;42.600;23.028;2023-03-24T03:06:19;93699.72;;;5.59;100.00
11345;BME280;5727;42.600;23.028;2023-03-24T03:08:49;93697.59;;;5.62;100.00
11345;BME280;5727;42.600;23.028;2023-03-24T03:11:18;93700.03;;;5.58;100.00
11345;BME280;5727;42.600;23.028;2023-03-24T03:13:48;93697.31;;;5.63;100.00
11345;BME280;5727;42.600;23.028;2023-03-24T03:16:20;93688.84;;;5.57;100.00
11345;BME280;5727;42.600;23.028;2023-03-24T03:18:53;93695.00;;;5.62;100.00
11345;BME280;5727;42.600;23.028;2023-03-24T03:21:23;93698.84;;;5.64;100.00
11345;BME280;5727;42.600;23.028;2023-03-24T03:23:54;93707.69;;;5.63;100.00
11345;BME280;5727;42.600;23.028;2023-03-24T03:26:25;93706.16;;;5.62;100.00
11345;BME280;5727;42.600;23.028;2023-03-24T03:28:56;93698.84;;;5.64;100.00
11345;BME280;5727;42.600;23.028;2023-03-24T03:31:28;93707.41;;;5.65;100.00
11345;BME280;5727;42.600;23.028;2023-03-24T03:34:04;93703.28;;;5.64;100.00
11345;BME280;5727;42.600;23.028;2023-03-24T03:36:38;93699.25;;;5.57;100.00
11345;BME280;5727;42.600;23.028;2023-03-24T03:39:10;93699.72;;;5.59;100.00
11345;BME280;5727;42.600;23.028;2023-03-24T03:41:42;93703.41;;;5.58;100.00
11345;BME280;5727;42.600;23.028;2023-03-24T03:44:09;93709.63;;;5.57;100.00
11345;BME280;5727;42.600;23.028;2023-03-24T03:46:36;93708.13;;;5.56;100.00
11345;BME280;5727;42.600;23.028;2023-03-24T03:49:05;93703.22;;;5.55;100.00
11345;BME280;5727;42.600;23.028;2023-03-24T03:51:33;93695.91;;;5.57;100.00
11345;BME280;5727;42.600;23.028;2023-03-24T03:54:02;93702.91;;;5.56;100.00
11345;BME280;5727;42.600;23.028;2023-03-24T03:56:31;93698.03;;;5.55;100.00
11345;BME280;5727;42.600;23.028;2023-03-24T03:59:00;93695.69;;;5.53;100.00
11345;BME280;5727;42.600;23.028;2023-03-24T04:01:30;93703.00;;;5.51;100.00
11345;BME280;5727;42.600;23.028;2023-03-24T04:04:10;93690.16;;;5.46;100.00
11345;BME280;5727;42.600;23.028;2023-03-24T04:06:48;93701.13;;;5.43;100.00
11345;BME280;5727;42.600;23.028;2023-03-24T04:09:35;93697.09;;;5.37;100.00
11345;BME280;5727;42.600;23.028;2023-03-24T04:12:30;93706.72;;;5.37;100.00
11345;BME280;5727;42.600;23.028;2023-03-24T04:15:21;93709.91;;;5.34;100.00
11345;BME280;5727;42.600;23.028;2023-03-24T04:18:05;93711.25;;;5.31;100.00
11345;BME280;5727;42.600;23.028;2023-03-24T04:20:41;93716.47;;;5.31;100.00
11345;BME280;5727;42.600;23.028;2023-03-24T04:23:18;93710.31;;;5.27;100.00
11345;BME280;5727;42.600;23.028;2023-03-24T04:25:56;93716.38;;;5.23;100.00
11345;BME280;5727;42.600;23.028;2023-03-24T04:28:46;93720.81;;;5.22;100.00
11345;BME280;5727;42.600;23.028;2023-03-24T04:31:22;93708.88;;;5.21;100.00
11345;BME280;5727;42.600;23.028;2023-03-24T04:33:55;93710.50;;;5.17;100.00
11345;BME280;5727;42.600;23.028;2023-03-24T04:36:32;93707.34;;;5.20;100.00
11345;BME280;5727;42.600;23.028;2023-03-24T04:39:08;93704.84;;;5.15;100.00
11345;BME280;5727;42.600;23.028;2023-03-24T04:41:37;93703.59;;;5.13;100.00
11345;BME280;5727;42.600;23.028;2023-03-24T04:44:05;93705.13;;;5.14;100.00
11345;BME280;5727;42.600;23.028;2023-03-24T04:46:34;93708.03;;;5.12;100.00
11345;BME280;5727;42.600;23.028;2023-03-24T04:49:02;93722.84;;;5.12;100.00
11345;BME280;5727;42.600;23.028;2023-03-24T04:51:30;93722.84;;;5.12;100.00
11345;BME280;5727;42.600;23.028;2023-03-24T04:53:58;93713.69;;;5.14;100.00
11345;BME280;5727;42.600;23.028;2023-03-24T04:56:37;93721.97;;;5.16;100.00
11345;BME280;5727;42.600;23.028;2023-03-24T04:59:05;93736.47;;;5.17;100.00
11345;BME280;5727;42.600;23.028;2023-03-24T05:01:34;93736.00;;;5.15;100.00
11345;BME280;5727;42.600;23.028;2023-03-24T05:04:02;93737.84;;;5.15;100.00
11345;BME280;5727;42.600;23.028;2023-03-24T05:06:29;93742.75;;;5.16;100.00
11345;BME280;5727;42.600;23.028;2023-03-24T05:08:56;93748.41;;;5.18;100.00
11345;BME280;5727;42.600;23.028;2023-03-24T05:11:24;93754.09;;;5.20;100.00
11345;BME280;5727;42.600;23.028;2023-03-24T05:13:51;93751.09;;;5.27;100.00
11345;BME280;5727;42.600;23.028;2023-03-24T05:16:18;93752.81;;;5.31;100.00
11345;BME280;5727;42.600;23.028;2023-03-24T05:18:47;93761.09;;;5.33;100.00
11345;BME280;5727;42.600;23.028;2023-03-24T05:21:13;93753.78;;;5.35;100.00
11345;BME280;5727;42.600;23.028;2023-03-24T05:23:40;93769.16;;;5.45;100.00
11345;BME280;5727;42.600;23.028;2023-03-24T05:26:07;93761.81;;;5.47;100.00
11345;BME280;5727;42.600;23.028;2023-03-24T05:28:33;93762.03;;;5.51;100.00
11345;BME280;5727;42.600;23.028;2023-03-24T05:31:00;93760.09;;;5.56;100.00
11345;BME280;5727;42.600;23.028;2023-03-24T05:33:27;93754.28;;;5.59;100.00
11345;BME280;5727;42.600;23.028;2023-03-24T05:35:55;93755.13;;;5.69;100.00
11345;BME280;5727;42.600;23.028;2023-03-24T05:38:22;93755.34;;;5.72;100.00
11345;BME280;5727;42.600;23.028;2023-03-24T05:40:49;93756.47;;;5.80;100.00
11345;BME280;5727;42.600;23.028;2023-03-24T05:43:15;93756.38;;;5.85;100.00
11345;BME280;5727;42.600;23.028;2023-03-24T05:45:42;93761.47;;;5.90;100.00
11345;BME280;5727;42.600;23.028;2023-03-24T05:48:09;93761.06;;;5.96;100.00
11345;BME280;5727;42.600;23.028;2023-03-24T05:50:36;93760.75;;;5.98;100.00
11345;BME280;5727;42.600;23.028;2023-03-24T05:53:04;93760.34;;;6.04;100.00
11345;BME280;5727;42.600;23.028;2023-03-24T05:55:31;93761.47;;;6.12;100.00
11345;BME280;5727;42.600;23.028;2023-03-24T05:57:58;93762.41;;;6.16;100.00
11345;BME280;5727;42.600;23.028;2023-03-24T06:00:27;93757.56;;;6.23;100.00
11345;BME280;5727;42.600;23.028;2023-03-24T06:02:55;93757.31;;;6.33;100.00
11345;BME280;5727;42.600;23.028;2023-03-24T06:05:22;93755.06;;;6.40;100.00
11345;BME280;5727;42.600;23.028;2023-03-24T06:07:49;93762.31;;;6.52;100.00
11345;BME280;5727;42.600;23.028;2023-03-24T06:10:17;93761.28;;;6.61;100.00
11345;BME280;5727;42.600;23.028;2023-03-24T06:12:44;93760.72;;;6.64;100.00
11345;BME280;5727;42.600;23.028;2023-03-24T06:15:11;93761.19;;;6.66;100.00
11345;BME280;5727;42.600;23.028;2023-03-24T06:17:42;93759.06;;;6.77;100.00
11345;BME280;5727;42.600;23.028;2023-03-24T06:20:10;93761.84;;;6.80;100.00
11345;BME280;5727;42.600;23.028;2023-03-24T06:22:41;93767.41;;;6.87;100.00
11345;BME280;5727;42.600;23.028;2023-03-24T06:25:09;93757.00;;;6.96;100.00
11345;BME280;5727;42.600;23.028;2023-03-24T06:27:38;93771.88;;;6.95;100.00
11345;BME280;5727;42.600;23.028;2023-03-24T06:30:11;93759.19;;;7.02;100.00
11345;BME280;5727;42.600;23.028;2023-03-24T06:32:38;93757.38;;;7.11;100.00
11345;BME280;5727;42.600;23.028;2023-03-24T06:35:05;93760.59;;;7.17;100.00
11345;BME280;5727;42.600;23.028;2023-03-24T06:37:32;93762.13;;;7.09;100.00
11345;BME280;5727;42.600;23.028;2023-03-24T06:39:59;93759.03;;;7.07;100.00
11345;BME280;5727;42.600;23.028;2023-03-24T06:42:26;93760.59;;;7.08;100.00
11345;BME280;5727;42.600;23.028;2023-03-24T06:44:54;93761.66;;;7.07;100.00
11345;BME280;5727;42.600;23.028;2023-03-24T06:47:20;93770.53;;;7.06;100.00
11345;BME280;5727;42.600;23.028;2023-03-24T06:49:47;93766.84;;;7.07;100.00
11345;BME280;5727;42.600;23.028;2023-03-24T06:52:14;93766.44;;;7.22;100.00
11345;BME280;5727;42.600;23.028;2023-03-24T06:54:40;93759.09;;;7.16;100.00
11345;BME280;5727;42.600;23.028;2023-03-24T06:57:07;93771.84;;;7.26;100.00
11345;BME280;5727;42.600;23.028;2023-03-24T06:59:34;93756.94;;;7.26;100.00
11345;BME280;5727;42.600;23.028;2023-03-24T07:02:02;93764.19;;;7.29;100.00
11345;BME280;5727;42.600;23.028;2023-03-24T07:04:29;93763.59;;;7.50;100.00
11345;BME280;5727;42.600;23.028;2023-03-24T07:07:01;93765.00;;;7.56;100.00
11345;BME280;5727;42.600;23.028;2023-03-24T07:09:27;93766.22;;;7.58;100.00
11345;BME280;5727;42.600;23.028;2023-03-24T07:11:54;93764.41;;;7.76;100.00
11345;BME280;5727;42.600;23.028;2023-03-24T07:14:21;93764.56;;;7.79;100.00
11345;BME280;5727;42.600;23.028;2023-03-24T07:16:50;93771.31;;;7.89;100.00
11345;BME280;5727;42.600;23.028;2023-03-24T07:19:18;93770.41;;;8.10;100.00
11345;BME280;5727;42.600;23.028;2023-03-24T07:21:47;93777.47;;;8.27;100.00
11345;BME280;5727;42.600;23.028;2023-03-24T07:24:14;93770.41;;;8.36;100.00
11345;BME280;5727;42.600;23.028;2023-03-24T07:26:41;93766.25;;;8.44;100.00
11345;BME280;5727;42.600;23.028;2023-03-24T07:29:08;93771.91;;;8.54;100.00
11345;BME280;5727;42.600;23.028;2023-03-24T07:31:35;93781.06;;;8.77;100.00
11345;BME280;5727;42.600;23.028;2023-03-24T07:34:03;93782.13;;;8.85;100.00
11345;BME280;5727;42.600;23.028;2023-03-24T07:36:31;93775.13;;;9.06;100.00
11345;BME280;5727;42.600;23.028;2023-03-24T07:38:58;93779.06;;;9.20;100.00
11345;BME280;5727;42.600;23.028;2023-03-24T07:41:25;93779.34;;;9.28;100.00
11345;BME280;5727;42.600;23.028;2023-03-24T07:43:53;93785.44;;;9.40;100.00
11345;BME280;5727;42.600;23.028;2023-03-24T07:46:20;93784.28;;;9.58;100.00
11345;BME280;5727;42.600;23.028;2023-03-24T07:48:47;93779.72;;;9.76;100.00
11345;BME280;5727;42.600;23.028;2023-03-24T07:51:14;93778.81;;;9.92;100.00
11345;BME280;5727;42.600;23.028;2023-03-24T07:53:43;93779.75;;;10.08;100.00
11345;BME280;5727;42.600;23.028;2023-03-24T07:56:12;93771.16;;;10.29;100.00
11345;BME280;5727;42.600;23.028;2023-03-24T07:58:39;93768.22;;;10.51;100.00
11345;BME280;5727;42.600;23.028;2023-03-24T08:01:06;93761.13;;;10.63;100.00
11345;BME280;5727;42.600;23.028;2023-03-24T08:03:34;93757.44;;;10.76;100.00
11345;BME280;5727;42.600;23.028;2023-03-24T08:06:01;93754.88;;;11.00;100.00
11345;BME280;5727;42.600;23.028;2023-03-24T08:08:28;93746.81;;;11.18;100.00
11345;BME280;5727;42.600;23.028;2023-03-24T08:10:57;93751.50;;;11.36;100.00
11345;BME280;5727;42.600;23.028;2023-03-24T08:13:24;93745.06;;;11.46;100.00
11345;BME280;5727;42.600;23.028;2023-03-24T08:15:51;93749.84;;;11.56;100.00
11345;BME280;5727;42.600;23.028;2023-03-24T08:18:18;93754.03;;;11.69;100.00
11345;BME280;5727;42.600;23.028;2023-03-24T08:20:46;93757.97;;;11.75;100.00
11345;BME280;5727;42.600;23.028;2023-03-24T08:23:13;93752.44;;;11.92;100.00
11345;BME280;5727;42.600;23.028;2023-03-24T08:25:40;93750.88;;;12.03;100.00
11345;BME280;5727;42.600;23.028;2023-03-24T08:28:09;93741.78;;;12.13;100.00
11345;BME280;5727;42.600;23.028;2023-03-24T08:30:35;93744.03;;;12.26;100.00
11345;BME280;5727;42.600;23.028;2023-03-24T08:33:02;93741.50;;;12.30;100.00
11345;BME280;5727;42.600;23.028;2023-03-24T08:35:31;93746.19;;;12.36;100.00
11345;BME280;5727;42.600;23.028;2023-03-24T08:37:58;93735.81;;;12.55;100.00
11345;BME280;5727;42.600;23.028;2023-03-24T08:40:27;93735.50;;;12.72;100.00
11345;BME280;5727;42.600;23.028;2023-03-24T08:42:57;93740.69;;;12.84;100.00
11345;BME280;5727;42.600;23.028;2023-03-24T08:45:28;93739.50;;;12.98;100.00
11345;BME280;5727;42.600;23.028;2023-03-24T08:47:57;93734.09;;;12.91;98.09
11345;BME280;5727;42.600;23.028;2023-03-24T08:50:27;93728.44;;;13.04;97.56
11345;BME280;5727;42.600;23.028;2023-03-24T08:52:54;93730.88;;;13.13;96.45
11345;BME280;5727;42.600;23.028;2023-03-24T08:55:22;93728.09;;;13.21;99.20
11345;BME280;5727;42.600;23.028;2023-03-24T08:57:49;93729.00;;;13.29;95.59
11345;BME280;5727;42.600;23.028;2023-03-24T09:00:18;93720.75;;;13.46;95.10
11345;BME280;5727;42.600;23.028;2023-03-24T09:02:47;93713.84;;;13.57;94.31
11345;BME280;5727;42.600;23.028;2023-03-24T09:05:15;93705.78;;;13.65;92.56
11345;BME280;5727;42.600;23.028;2023-03-24T09:07:43;93701.91;;;13.78;92.00
11345;BME280;5727;42.600;23.028;2023-03-24T09:10:12;93703.38;;;13.95;91.21
11345;BME280;5727;42.600;23.028;2023-03-24T09:12:39;93703.25;;;14.07;91.43
11345;BME280;5727;42.600;23.028;2023-03-24T09:15:08;93698.09;;;14.14;84.92
11345;BME280;5727;42.600;23.028;2023-03-24T09:17:36;93690.34;;;14.21;84.29
11345;BME280;5727;42.600;23.028;2023-03-24T09:20:05;93695.69;;;14.25;80.81
11345;BME280;5727;42.600;23.028;2023-03-24T09:22:36;93692.66;;;14.42;77.40
11345;BME280;5727;42.600;23.028;2023-03-24T09:25:03;93696.22;;;14.53;79.85
11345;BME280;5727;42.600;23.028;2023-03-24T09:27:30;93696.19;;;14.72;75.69
11345;BME280;5727;42.600;23.028;2023-03-24T09:29:56;93691.44;;;14.81;74.26
11345;BME280;5727;42.600;23.028;2023-03-24T09:32:23;93695.78;;;14.93;71.63
11345;BME280;5727;42.600;23.028;2023-03-24T09:34:50;93692.16;;;15.01;64.82
11345;BME280;5727;42.600;23.028;2023-03-24T09:37:18;93681.72;;;15.08;62.27
11345;BME280;5727;42.600;23.028;2023-03-24T09:39:45;93684.06;;;15.13;61.58
11345;BME280;5727;42.600;23.028;2023-03-24T09:42:19;93676.25;;;15.20;62.21
11345;BME280;5727;42.600;23.028;2023-03-24T09:44:51;93667.38;;;15.31;62.55
11345;BME280;5727;42.600;23.028;2023-03-24T09:47:25;93674.22;;;15.36;59.85
11345;BME280;5727;42.600;23.028;2023-03-24T09:49:58;93669.34;;;15.38;60.30
11345;BME280;5727;42.600;23.028;2023-03-24T09:52:31;93661.84;;;15.40;56.26
11345;BME280;5727;42.600;23.028;2023-03-24T09:54:59;93662.47;;;15.56;57.81
11345;BME280;5727;42.600;23.028;2023-03-24T09:57:31;93655.00;;;15.62;55.37
11345;BME280;5727;42.600;23.028;2023-03-24T10:00:04;93652.81;;;15.67;56.26
11345;BME280;5727;42.600;23.028;2023-03-24T10:02:35;93645.00;;;15.78;60.14
11345;BME280;5727;42.600;23.028;2023-03-24T10:05:05;93642.16;;;15.90;59.35
11345;BME280;5727;42.600;23.028;2023-03-24T10:07:42;93642.25;;;16.00;56.55
11345;BME280;5727;42.600;23.028;2023-03-24T10:10:19;93634.47;;;16.11;57.09
11345;BME280;5727;42.600;23.028;2023-03-24T10:12:49;93632.69;;;16.22;52.10
11345;BME280;5727;42.600;23.028;2023-03-24T10:15:23;93631.19;;;16.21;49.87
11345;BME280;5727;42.600;23.028;2023-03-24T10:17:56;93626.28;;;16.19;50.81
11345;BME280;5727;42.600;23.028;2023-03-24T10:20:32;93633.50;;;16.26;50.40
11345;BME280;5727;42.600;23.028;2023-03-24T10:23:18;93627.16;;;16.34;48.64
11345;BME280;5727;42.600;23.028;2023-03-24T10:25:54;93621.88;;;16.34;46.01
11345;BME280;5727;42.600;23.028;2023-03-24T10:28:24;93616.69;;;16.44;47.79
11345;BME280;5727;42.600;23.028;2023-03-24T10:30:55;93622.47;;;16.54;47.35
11345;BME280;5727;42.600;23.028;2023-03-24T10:33:26;93619.03;;;16.50;46.82
11345;BME280;5727;42.600;23.028;2023-03-24T10:35:56;93615.25;;;16.51;47.18
11345;BME280;5727;42.600;23.028;2023-03-24T10:38:25;93621.44;;;16.62;46.77
11345;BME280;5727;42.600;23.028;2023-03-24T10:40:53;93612.81;;;16.72;47.18
11345;BME280;5727;42.600;23.028;2023-03-24T10:43:20;93613.63;;;16.79;47.17
11345;BME280;5727;42.600;23.028;2023-03-24T10:45:50;93605.72;;;16.83;45.77
11345;BME280;5727;42.600;23.028;2023-03-24T10:48:34;93603.53;;;16.92;42.46
11345;BME280;5727;42.600;23.028;2023-03-24T10:51:01;93603.56;;;16.99;43.13
11345;BME280;5727;42.600;23.028;2023-03-24T10:53:32;93603.28;;;17.07;43.82
11345;BME280;5727;42.600;23.028;2023-03-24T10:55:59;93598.78;;;17.15;44.30
11345;BME280;5727;42.600;23.028;2023-03-24T10:58:29;93592.34;;;17.19;43.41
11345;BME280;5727;42.600;23.028;2023-03-24T11:01:19;93590.91;;;17.29;44.88
11345;BME280;5727;42.600;23.028;2023-03-24T11:03:47;93587.19;;;17.40;45.50
11345;BME280;5727;42.600;23.028;2023-03-24T11:06:17;93591.84;;;17.54;43.32
11345;BME280;5727;42.600;23.028;2023-03-24T11:08:45;93585.81;;;17.57;41.67
11345;BME280;5727;42.600;23.028;2023-03-24T11:11:13;93579.00;;;17.60;41.47
11345;BME280;5727;42.600;23.028;2023-03-24T11:13:41;93574.53;;;17.74;42.28
11345;BME280;5727;42.600;23.028;2023-03-24T11:16:26;93581.38;;;17.86;42.27
11345;BME280;5727;42.600;23.028;2023-03-24T11:18:54;93573.44;;;17.96;39.61
11345;BME280;5727;42.600;23.028;2023-03-24T11:21:22;93567.03;;;18.04;36.75
11345;BME280;5727;42.600;23.028;2023-03-24T11:23:50;93567.03;;;18.01;34.97
11345;BME280;5727;42.600;23.028;2023-03-24T11:26:18;93552.66;;;18.02;34.18
11345;BME280;5727;42.600;23.028;2023-03-24T11:28:49;93547.00;;;18.10;34.96
11345;BME280;5727;42.600;23.028;2023-03-24T11:31:21;93545.50;;;18.16;38.73
11345;BME280;5727;42.600;23.028;2023-03-24T11:33:54;93540.97;;;18.20;38.67
11345;BME280;5727;42.600;23.028;2023-03-24T11:36:46;93540.59;;;18.33;39.43
11345;BME280;5727;42.600;23.028;2023-03-24T11:39:19;93539.50;;;18.44;40.34
11345;BME280;5727;42.600;23.028;2023-03-24T11:41:52;93536.84;;;18.44;39.20
11345;BME280;5727;42.600;23.028;2023-03-24T11:44:30;93530.78;;;18.54;39.53
11345;BME280;5727;42.600;23.028;2023-03-24T11:46:59;93527.75;;;18.63;38.03
11345;BME280;5727;42.600;23.028;2023-03-24T11:49:30;93524.34;;;18.73;38.88
11345;BME280;5727;42.600;23.028;2023-03-24T11:51:58;93520.91;;;18.76;38.55
11345;BME280;5727;42.600;23.028;2023-03-24T11:54:32;93522.44;;;18.80;38.62
11345;BME280;5727;42.600;23.028;2023-03-24T11:57:01;93501.19;;;18.98;36.20
11345;BME280;5727;42.600;23.028;2023-03-24T11:59:37;93506.84;;;19.07;38.12
11345;BME280;5727;42.600;23.028;2023-03-24T12:02:14;93498.50;;;19.08;34.95
11345;BME280;5727;42.600;23.028;2023-03-24T12:05:03;93500.38;;;19.22;35.12
11345;BME280;5727;42.600;23.028;2023-03-24T12:07:51;93493.47;;;19.42;34.94
11345;BME280;5727;42.600;23.028;2023-03-24T12:10:31;93492.56;;;19.80;33.25
11345;BME280;5727;42.600;23.028;2023-03-24T12:13:06;93488.44;;;20.82;33.49
11345;BME280;5727;42.600;23.028;2023-03-24T12:15:55;93480.81;;;22.42;29.81
11345;BME280;5727;42.600;23.028;2023-03-24T12:21:44;93480.47;;;26.18;24.43
11345;BME280;5727;42.600;23.028;2023-03-24T12:24:25;93473.06;;;26.73;23.01
11345;BME280;5727;42.600;23.028;2023-03-24T12:26:57;93474.84;;;28.00;22.44
11345;BME280;5727;42.600;23.028;2023-03-24T12:29:40;93468.06;;;28.57;21.56
11345;BME280;5727;42.600;23.028;2023-03-24T12:32:22;93473.69;;;28.89;21.66
11345;BME280;5727;42.600;23.028;2023-03-24T12:37:48;93450.44;;;30.84;20.36
11345;BME280;5727;42.600;23.028;2023-03-24T12:40:37;93448.72;;;31.72;18.88
11345;BME280;5727;42.600;23.028;2023-03-24T12:43:21;93441.13;;;31.47;18.09
11345;BME280;5727;42.600;23.028;2023-03-24T12:45:53;93429.69;;;32.10;18.28
11345;BME280;5727;42.600;23.028;2023-03-24T12:48:47;93434.66;;;33.36;17.77
11345;BME280;5727;42.600;23.028;2023-03-24T12:51:25;93422.72;;;34.62;17.64
11345;BME280;5727;42.600;23.028;2023-03-24T12:54:03;93420.84;;;35.38;16.49
11345;BME280;5727;42.600;23.028;2023-03-24T12:56:36;93422.66;;;35.46;16.64
11345;BME280;5727;42.600;23.028;2023-03-24T12:59:09;93423.81;;;35.34;16.39
11345;BME280;5727;42.600;23.028;2023-03-24T13:01:58;93415.78;;;35.03;16.26
11345;BME280;5727;42.600;23.028;2023-03-24T13:04:29;93409.72;;;34.46;16.21
11345;BME280;5727;42.600;23.028;2023-03-24T13:07:02;93406.72;;;34.75;15.96
11345;BME280;5727;42.600;23.028;2023-03-24T13:09:35;93405.28;;;33.86;17.09
11345;BME280;5727;42.600;23.028;2023-03-24T13:12:11;93402.50;;;32.89;17.67
11345;BME280;5727;42.600;23.028;2023-03-24T13:14:48;93400.59;;;33.15;16.74
11345;BME280;5727;42.600;23.028;2023-03-24T13:17:18;93393.28;;;32.31;16.96
11345;BME280;5727;42.600;23.028;2023-03-24T13:19:48;93396.94;;;29.81;18.84
11345;BME280;5727;42.600;23.028;2023-03-24T13:22:17;93389.63;;;27.10;20.87
11345;BME280;5727;42.600;23.028;2023-03-24T13:24:46;93391.19;;;26.40;22.07
11345;BME280;5727;42.600;23.028;2023-03-24T13:27:19;93386.53;;;26.78;22.51
11345;BME280;5727;42.600;23.028;2023-03-24T13:30:13;93387.53;;;27.79;21.70